sensor_id;sensor_type;location;lat;lon;timestamp;P1;durP1;ratioP1;P2;durP2;ratioP2
75285;SDS011;63879;46.064;14.532;2023-01-28T07:02:08;26.67;;;12.32;;
75285;SDS011;63879;46.064;14.532;2023-01-28T07:04:35;25.20;;;12.10;;
75285;SDS011;63879;46.064;14.532;2023-01-28T07:07:00;26.80;;;12.50;;
75285;SDS011;63879;46.064;14.532;2023-01-28T07:09:25;22.20;;;11.88;;
75285;SDS011;63879;46.064;14.532;2023-01-28T07:11:51;26.90;;;13.48;;
75285;SDS011;63879;46.064;14.532;2023-01-28T07:14:16;29.65;;;14.40;;
75285;SDS011;63879;46.064;14.532;2023-01-28T07:16:41;28.37;;;12.33;;
75285;SDS011;63879;46.064;14.532;2023-01-28T07:19:07;24.00;;;11.63;;
75285;SDS011;63879;46.064;14.532;2023-01-28T07:21:32;24.40;;;11.10;;
75285;SDS011;63879;46.064;14.532;2023-01-28T07:23:57;21.63;;;10.05;;
75285;SDS011;63879;46.064;14.532;2023-01-28T07:26:23;26.80;;;13.27;;
75285;SDS011;63879;46.064;14.532;2023-01-28T07:28:48;25.67;;;12.90;;
75285;SDS011;63879;46.064;14.532;2023-01-28T07:31:13;24.60;;;13.60;;
75285;SDS011;63879;46.064;14.532;2023-01-28T07:33:39;23.27;;;11.98;;
75285;SDS011;63879;46.064;14.532;2023-01-28T07:36:04;20.57;;;10.10;;
75285;SDS011;63879;46.064;14.532;2023-01-28T07:38:30;23.23;;;11.52;;
75285;SDS011;63879;46.064;14.532;2023-01-28T07:40:55;29.00;;;13.70;;
75285;SDS011;63879;46.064;14.532;2023-01-28T07:43:21;25.40;;;13.67;;
75285;SDS011;63879;46.064;14.532;2023-01-28T07:45:51;28.13;;;13.93;;
75285;SDS011;63879;46.064;14.532;2023-01-28T07:48:17;31.02;;;14.02;;
75285;SDS011;63879;46.064;14.532;2023-01-28T07:50:42;26.45;;;11.82;;
75285;SDS011;63879;46.064;14.532;2023-01-28T07:55:44;26.83;;;12.10;;
75285;SDS011;63879;46.064;14.532;2023-01-28T07:58:09;29.10;;;13.68;;
75285;SDS011;63879;46.064;14.532;2023-01-28T08:00:36;36.45;;;16.58;;
75285;SDS011;63879;46.064;14.532;2023-01-28T08:03:03;27.13;;;13.82;;
75285;SDS011;63879;46.064;14.532;2023-01-28T08:08:13;29.60;;;14.65;;
75285;SDS011;63879;46.064;14.532;2023-01-28T08:10:39;26.15;;;12.98;;
75285;SDS011;63879;46.064;14.532;2023-01-28T08:13:05;29.55;;;12.82;;
75285;SDS011;63879;46.064;14.532;2023-01-28T08:15:30;27.23;;;13.23;;
75285;SDS011;63879;46.064;14.532;2023-01-28T08:17:56;22.75;;;11.95;;
75285;SDS011;63879;46.064;14.532;2023-01-28T08:20:24;28.95;;;13.40;;
75285;SDS011;63879;46.064;14.532;2023-01-28T08:25:16;23.60;;;13.10;;
75285;SDS011;63879;46.064;14.532;2023-01-28T08:27:41;23.48;;;10.45;;
75285;SDS011;63879;46.064;14.532;2023-01-28T08:30:07;26.17;;;11.85;;
75285;SDS011;63879;46.064;14.532;2023-01-28T08:32:35;26.80;;;13.05;;
75285;SDS011;63879;46.064;14.532;2023-01-28T08:35:09;22.15;;;12.45;;
75285;SDS011;63879;46.064;14.532;2023-01-28T08:37:35;24.35;;;11.75;;
75285;SDS011;63879;46.064;14.532;2023-01-28T08:40:00;21.85;;;9.85;;
75285;SDS011;63879;46.064;14.532;2023-01-28T08:42:25;25.65;;;11.93;;
75285;SDS011;63879;46.064;14.532;2023-01-28T08:44:51;23.45;;;11.90;;
75285;SDS011;63879;46.064;14.532;2023-01-28T08:47:16;22.97;;;12.00;;
75285;SDS011;63879;46.064;14.532;2023-01-28T08:49:42;22.33;;;10.32;;
75285;SDS011;63879;46.064;14.532;2023-01-28T08:52:08;23.67;;;10.48;;
75285;SDS011;63879;46.064;14.532;2023-01-28T08:54:33;23.08;;;9.68;;
75285;SDS011;63879;46.064;14.532;2023-01-28T08:57:00;25.55;;;11.15;;
75285;SDS011;63879;46.064;14.532;2023-01-28T08:59:25;22.88;;;11.05;;
75285;SDS011;63879;46.064;14.532;2023-01-28T09:01:51;25.80;;;11.03;;
75285;SDS011;63879;46.064;14.532;2023-01-28T09:04:16;21.55;;;11.13;;
75285;SDS011;63879;46.064;14.532;2023-01-28T09:06:41;23.77;;;10.80;;
75285;SDS011;63879;46.064;14.532;2023-01-28T09:09:07;22.38;;;10.95;;
75285;SDS011;63879;46.064;14.532;2023-01-28T09:11:32;25.42;;;13.52;;
75285;SDS011;63879;46.064;14.532;2023-01-28T09:13:58;21.60;;;11.60;;
75285;SDS011;63879;46.064;14.532;2023-01-28T09:16:23;24.23;;;12.27;;
75285;SDS011;63879;46.064;14.532;2023-01-28T09:18:49;25.92;;;13.45;;
75285;SDS011;63879;46.064;14.532;2023-01-28T09:21:15;23.75;;;11.75;;
75285;SDS011;63879;46.064;14.532;2023-01-28T09:23:41;22.70;;;12.43;;
75285;SDS011;63879;46.064;14.532;2023-01-28T09:29:03;24.55;;;10.40;;
75285;SDS011;63879;46.064;14.532;2023-01-28T09:31:28;20.73;;;9.83;;
75285;SDS011;63879;46.064;14.532;2023-01-28T09:33:54;21.48;;;10.43;;
75285;SDS011;63879;46.064;14.532;2023-01-28T09:36:26;20.45;;;11.18;;
75285;SDS011;63879;46.064;14.532;2023-01-28T09:38:51;22.55;;;11.25;;
75285;SDS011;63879;46.064;14.532;2023-01-28T09:41:27;22.85;;;12.32;;
75285;SDS011;63879;46.064;14.532;2023-01-28T09:44:17;24.55;;;12.20;;
75285;SDS011;63879;46.064;14.532;2023-01-28T09:46:49;23.42;;;11.00;;
75285;SDS011;63879;46.064;14.532;2023-01-28T09:49:19;20.67;;;10.93;;
75285;SDS011;63879;46.064;14.532;2023-01-28T09:51:49;22.05;;;11.65;;
75285;SDS011;63879;46.064;14.532;2023-01-28T09:56:47;25.42;;;11.15;;
75285;SDS011;63879;46.064;14.532;2023-01-28T10:01:49;20.65;;;10.68;;
75285;SDS011;63879;46.064;14.532;2023-01-28T10:06:51;25.35;;;12.90;;
75285;SDS011;63879;46.064;14.532;2023-01-28T10:18:07;23.45;;;11.55;;
75285;SDS011;63879;46.064;14.532;2023-01-28T10:20:39;24.20;;;12.45;;
75285;SDS011;63879;46.064;14.532;2023-01-28T10:28:19;24.17;;;11.50;;
75285;SDS011;63879;46.064;14.532;2023-01-28T10:30:48;25.55;;;12.38;;
75285;SDS011;63879;46.064;14.532;2023-01-28T10:38:35;22.98;;;12.07;;
75285;SDS011;63879;46.064;14.532;2023-01-28T10:41:02;21.80;;;10.83;;
75285;SDS011;63879;46.064;14.532;2023-01-28T10:43:29;23.25;;;10.88;;
75285;SDS011;63879;46.064;14.532;2023-01-28T10:51:39;22.20;;;12.07;;
75285;SDS011;63879;46.064;14.532;2023-01-28T10:54:22;21.52;;;10.95;;
75285;SDS011;63879;46.064;14.532;2023-01-28T10:56:48;25.20;;;11.55;;
75285;SDS011;63879;46.064;14.532;2023-01-28T11:06:51;25.23;;;12.20;;
75285;SDS011;63879;46.064;14.532;2023-01-28T11:09:24;23.55;;;12.60;;
75285;SDS011;63879;46.064;14.532;2023-01-28T11:11:51;21.52;;;10.93;;
75285;SDS011;63879;46.064;14.532;2023-01-28T11:14:24;24.30;;;11.23;;
75285;SDS011;63879;46.064;14.532;2023-01-28T11:16:51;24.58;;;11.48;;
75285;SDS011;63879;46.064;14.532;2023-01-28T11:19:18;25.05;;;11.55;;
75285;SDS011;63879;46.064;14.532;2023-01-28T11:21:49;24.58;;;12.35;;
75285;SDS011;63879;46.064;14.532;2023-01-28T11:24:19;22.13;;;10.25;;
75285;SDS011;63879;46.064;14.532;2023-01-28T11:26:47;27.63;;;12.18;;
75285;SDS011;63879;46.064;14.532;2023-01-28T11:31:55;26.77;;;12.82;;
75285;SDS011;63879;46.064;14.532;2023-01-28T11:34:24;25.42;;;13.05;;
75285;SDS011;63879;46.064;14.532;2023-01-28T11:37:01;23.25;;;12.60;;
75285;SDS011;63879;46.064;14.532;2023-01-28T11:39:29;28.13;;;12.73;;
75285;SDS011;63879;46.064;14.532;2023-01-28T11:42:02;25.33;;;12.68;;
75285;SDS011;63879;46.064;14.532;2023-01-28T11:44:49;25.23;;;12.50;;
75285;SDS011;63879;46.064;14.532;2023-01-28T12:11:13;27.48;;;13.02;;
75285;SDS011;63879;46.064;14.532;2023-01-28T12:22:53;27.65;;;14.00;;
75285;SDS011;63879;46.064;14.532;2023-01-28T12:35:55;29.77;;;12.73;;
75285;SDS011;63879;46.064;14.532;2023-01-28T12:41:10;30.27;;;12.57;;
75285;SDS011;63879;46.064;14.532;2023-01-28T12:43:51;27.80;;;13.20;;
75285;SDS011;63879;46.064;14.532;2023-01-28T12:46:24;26.17;;;13.00;;
75285;SDS011;63879;46.064;14.532;2023-01-28T12:51:50;24.33;;;11.02;;
75285;SDS011;63879;46.064;14.532;2023-01-28T12:54:21;28.15;;;13.65;;
75285;SDS011;63879;46.064;14.532;2023-01-28T12:56:54;27.13;;;13.38;;
75285;SDS011;63879;46.064;14.532;2023-01-28T12:59:26;27.55;;;14.18;;
75285;SDS011;63879;46.064;14.532;2023-01-28T13:04:39;27.75;;;14.80;;
75285;SDS011;63879;46.064;14.532;2023-01-28T13:12:28;29.23;;;13.93;;
75285;SDS011;63879;46.064;14.532;2023-01-28T13:14:55;28.08;;;13.07;;
75285;SDS011;63879;46.064;14.532;2023-01-28T13:17:30;33.88;;;14.93;;
75285;SDS011;63879;46.064;14.532;2023-01-28T13:19:57;29.70;;;15.00;;
75285;SDS011;63879;46.064;14.532;2023-01-28T13:24:56;29.20;;;14.18;;
75285;SDS011;63879;46.064;14.532;2023-01-28T13:27:35;28.60;;;13.43;;
75285;SDS011;63879;46.064;14.532;2023-01-28T13:30:03;31.88;;;18.00;;
75285;SDS011;63879;46.064;14.532;2023-01-28T13:32:54;30.98;;;13.85;;
75285;SDS011;63879;46.064;14.532;2023-01-28T13:35:29;26.33;;;13.90;;
75285;SDS011;63879;46.064;14.532;2023-01-28T13:37:54;31.35;;;13.65;;
75285;SDS011;63879;46.064;14.532;2023-01-28T13:40:22;30.77;;;13.85;;
75285;SDS011;63879;46.064;14.532;2023-01-28T13:42:56;27.45;;;14.30;;
75285;SDS011;63879;46.064;14.532;2023-01-28T13:45:25;26.92;;;12.18;;
75285;SDS011;63879;46.064;14.532;2023-01-28T13:47:54;28.40;;;13.48;;
75285;SDS011;63879;46.064;14.532;2023-01-28T13:50:26;29.42;;;13.52;;
75285;SDS011;63879;46.064;14.532;2023-01-28T13:55:45;27.75;;;13.32;;
75285;SDS011;63879;46.064;14.532;2023-01-28T13:58:24;27.35;;;13.82;;
75285;SDS011;63879;46.064;14.532;2023-01-28T14:01:22;26.67;;;13.25;;
75285;SDS011;63879;46.064;14.532;2023-01-28T14:07:05;27.52;;;13.05;;
75285;SDS011;63879;46.064;14.532;2023-01-28T14:13:38;27.50;;;13.88;;
75285;SDS011;63879;46.064;14.532;2023-01-28T14:16:12;24.90;;;13.18;;
75285;SDS011;63879;46.064;14.532;2023-01-28T14:18:49;27.67;;;13.27;;
75285;SDS011;63879;46.064;14.532;2023-01-28T14:21:15;25.75;;;11.82;;
75285;SDS011;63879;46.064;14.532;2023-01-28T14:23:47;28.25;;;13.77;;
75285;SDS011;63879;46.064;14.532;2023-01-28T14:29:15;25.42;;;12.90;;
75285;SDS011;63879;46.064;14.532;2023-01-28T14:32:05;26.30;;;12.48;;
75285;SDS011;63879;46.064;14.532;2023-01-28T14:34:36;27.02;;;12.85;;
75285;SDS011;63879;46.064;14.532;2023-01-28T14:37:03;23.75;;;12.23;;
75285;SDS011;63879;46.064;14.532;2023-01-28T14:39:37;28.00;;;12.25;;
75285;SDS011;63879;46.064;14.532;2023-01-28T14:42:05;25.63;;;12.65;;
75285;SDS011;63879;46.064;14.532;2023-01-28T14:44:39;28.58;;;11.75;;
75285;SDS011;63879;46.064;14.532;2023-01-28T14:49:34;30.35;;;12.18;;
75285;SDS011;63879;46.064;14.532;2023-01-28T14:52:31;32.63;;;12.90;;
75285;SDS011;63879;46.064;14.532;2023-01-28T15:01:03;25.52;;;11.70;;
75285;SDS011;63879;46.064;14.532;2023-01-28T15:03:28;26.25;;;10.55;;
75285;SDS011;63879;46.064;14.532;2023-01-28T15:06:02;25.95;;;12.45;;
75285;SDS011;63879;46.064;14.532;2023-01-28T15:08:27;24.23;;;11.80;;
75285;SDS011;63879;46.064;14.532;2023-01-28T15:10:56;25.67;;;13.13;;
75285;SDS011;63879;46.064;14.532;2023-01-28T15:13:28;25.25;;;11.48;;
75285;SDS011;63879;46.064;14.532;2023-01-28T15:15:54;26.35;;;13.38;;
75285;SDS011;63879;46.064;14.532;2023-01-28T15:21:00;28.73;;;12.18;;
75285;SDS011;63879;46.064;14.532;2023-01-28T15:23:39;25.52;;;13.13;;
75285;SDS011;63879;46.064;14.532;2023-01-28T15:28:47;24.70;;;11.70;;
75285;SDS011;63879;46.064;14.532;2023-01-28T15:31:30;27.20;;;13.38;;
75285;SDS011;63879;46.064;14.532;2023-01-28T15:36:27;26.70;;;13.27;;
75285;SDS011;63879;46.064;14.532;2023-01-28T15:38:53;23.38;;;11.43;;
75285;SDS011;63879;46.064;14.532;2023-01-28T15:41:20;31.00;;;13.80;;
75285;SDS011;63879;46.064;14.532;2023-01-28T15:43:48;24.02;;;12.82;;
75285;SDS011;63879;46.064;14.532;2023-01-28T15:46:15;25.88;;;12.35;;
75285;SDS011;63879;46.064;14.532;2023-01-28T15:48:41;30.10;;;12.57;;
75285;SDS011;63879;46.064;14.532;2023-01-28T15:51:16;23.50;;;12.43;;
75285;SDS011;63879;46.064;14.532;2023-01-28T15:53:45;24.23;;;13.00;;
75285;SDS011;63879;46.064;14.532;2023-01-28T15:56:12;30.38;;;13.30;;
75285;SDS011;63879;46.064;14.532;2023-01-28T15:58:39;30.20;;;13.50;;
75285;SDS011;63879;46.064;14.532;2023-01-28T16:03:37;31.85;;;15.80;;
75285;SDS011;63879;46.064;14.532;2023-01-28T16:08:33;34.13;;;15.70;;
75285;SDS011;63879;46.064;14.532;2023-01-28T16:11:03;32.72;;;15.38;;
75285;SDS011;63879;46.064;14.532;2023-01-28T16:13:32;31.98;;;16.00;;
75285;SDS011;63879;46.064;14.532;2023-01-28T16:15:59;34.72;;;15.65;;
75285;SDS011;63879;46.064;14.532;2023-01-28T16:18:28;33.92;;;15.50;;
75285;SDS011;63879;46.064;14.532;2023-01-28T16:20:54;32.17;;;15.40;;
75285;SDS011;63879;46.064;14.532;2023-01-28T16:23:21;33.00;;;15.98;;
75285;SDS011;63879;46.064;14.532;2023-01-28T16:28:28;29.63;;;14.80;;
75285;SDS011;63879;46.064;14.532;2023-01-28T16:30:54;30.65;;;14.38;;
75285;SDS011;63879;46.064;14.532;2023-01-28T16:33:20;38.35;;;16.80;;
75285;SDS011;63879;46.064;14.532;2023-01-28T16:35:46;41.27;;;18.37;;
75285;SDS011;63879;46.064;14.532;2023-01-28T16:38:12;36.40;;;17.45;;
75285;SDS011;63879;46.064;14.532;2023-01-28T16:40:41;35.63;;;15.75;;
75285;SDS011;63879;46.064;14.532;2023-01-28T16:43:08;32.38;;;16.35;;
75285;SDS011;63879;46.064;14.532;2023-01-28T16:45:35;36.58;;;16.15;;
75285;SDS011;63879;46.064;14.532;2023-01-28T16:48:01;32.25;;;15.45;;
75285;SDS011;63879;46.064;14.532;2023-01-28T16:50:26;33.75;;;14.13;;
75285;SDS011;63879;46.064;14.532;2023-01-28T16:52:52;36.88;;;15.90;;
75285;SDS011;63879;46.064;14.532;2023-01-28T16:55:19;39.33;;;16.05;;
75285;SDS011;63879;46.064;14.532;2023-01-28T16:57:46;32.03;;;15.10;;
75285;SDS011;63879;46.064;14.532;2023-01-28T17:00:17;35.05;;;15.98;;
75285;SDS011;63879;46.064;14.532;2023-01-28T17:02:44;32.95;;;15.68;;
75285;SDS011;63879;46.064;14.532;2023-01-28T17:05:10;36.55;;;15.75;;
75285;SDS011;63879;46.064;14.532;2023-01-28T17:07:36;37.75;;;16.67;;
75285;SDS011;63879;46.064;14.532;2023-01-28T17:10:02;36.08;;;17.60;;
75285;SDS011;63879;46.064;14.532;2023-01-28T17:12:28;36.35;;;16.85;;
75285;SDS011;63879;46.064;14.532;2023-01-28T17:14:53;35.87;;;15.57;;
75285;SDS011;63879;46.064;14.532;2023-01-28T17:17:19;32.50;;;16.15;;
75285;SDS011;63879;46.064;14.532;2023-01-28T17:19:44;28.30;;;15.67;;
75285;SDS011;63879;46.064;14.532;2023-01-28T17:22:10;32.10;;;13.55;;
75285;SDS011;63879;46.064;14.532;2023-01-28T17:24:35;28.27;;;13.83;;
75285;SDS011;63879;46.064;14.532;2023-01-28T17:27:00;33.75;;;15.85;;
75285;SDS011;63879;46.064;14.532;2023-01-28T17:29:26;52.42;;;17.05;;
75285;SDS011;63879;46.064;14.532;2023-01-28T17:31:51;33.58;;;15.32;;
75285;SDS011;63879;46.064;14.532;2023-01-28T17:34:17;28.87;;;12.57;;
75285;SDS011;63879;46.064;14.532;2023-01-28T17:36:42;35.13;;;14.98;;
75285;SDS011;63879;46.064;14.532;2023-01-28T17:39:08;28.80;;;13.82;;
75285;SDS011;63879;46.064;14.532;2023-01-28T17:41:33;33.03;;;13.77;;
75285;SDS011;63879;46.064;14.532;2023-01-28T17:43:59;31.70;;;14.85;;
75285;SDS011;63879;46.064;14.532;2023-01-28T17:46:24;31.75;;;16.20;;
75285;SDS011;63879;46.064;14.532;2023-01-28T17:48:50;33.13;;;15.82;;
75285;SDS011;63879;46.064;14.532;2023-01-28T17:51:16;32.97;;;15.43;;
75285;SDS011;63879;46.064;14.532;2023-01-28T17:53:46;29.65;;;13.80;;
75285;SDS011;63879;46.064;14.532;2023-01-28T17:56:22;31.38;;;14.77;;
75285;SDS011;63879;46.064;14.532;2023-01-28T17:58:50;33.67;;;16.17;;
75285;SDS011;63879;46.064;14.532;2023-01-28T18:01:16;36.00;;;17.15;;
75285;SDS011;63879;46.064;14.532;2023-01-28T18:03:42;32.00;;;15.00;;
75285;SDS011;63879;46.064;14.532;2023-01-28T18:06:07;30.27;;;14.30;;
75285;SDS011;63879;46.064;14.532;2023-01-28T18:08:33;29.13;;;13.57;;
75285;SDS011;63879;46.064;14.532;2023-01-28T18:10:59;28.70;;;13.40;;
75285;SDS011;63879;46.064;14.532;2023-01-28T18:13:26;34.22;;;14.00;;
75285;SDS011;63879;46.064;14.532;2023-01-28T18:16:04;32.22;;;14.27;;
75285;SDS011;63879;46.064;14.532;2023-01-28T18:18:38;30.88;;;14.00;;
75285;SDS011;63879;46.064;14.532;2023-01-28T18:21:05;32.90;;;15.85;;
75285;SDS011;63879;46.064;14.532;2023-01-28T18:23:31;36.40;;;15.18;;
75285;SDS011;63879;46.064;14.532;2023-01-28T18:25:58;31.65;;;15.13;;
75285;SDS011;63879;46.064;14.532;2023-01-28T18:28:25;35.17;;;16.17;;
75285;SDS011;63879;46.064;14.532;2023-01-28T18:30:51;33.00;;;16.20;;
75285;SDS011;63879;46.064;14.532;2023-01-28T18:33:17;39.13;;;16.23;;
75285;SDS011;63879;46.064;14.532;2023-01-28T18:35:43;35.95;;;16.88;;
75285;SDS011;63879;46.064;14.532;2023-01-28T18:38:09;30.50;;;14.70;;
75285;SDS011;63879;46.064;14.532;2023-01-28T18:40:35;32.17;;;15.20;;
75285;SDS011;63879;46.064;14.532;2023-01-28T18:43:01;32.05;;;15.65;;
75285;SDS011;63879;46.064;14.532;2023-01-28T18:45:26;27.02;;;13.98;;
75285;SDS011;63879;46.064;14.532;2023-01-28T18:47:52;28.70;;;14.68;;
75285;SDS011;63879;46.064;14.532;2023-01-28T18:50:17;33.60;;;15.60;;
75285;SDS011;63879;46.064;14.532;2023-01-28T18:52:42;29.27;;;13.88;;
75285;SDS011;63879;46.064;14.532;2023-01-28T18:55:08;30.77;;;14.68;;
75285;SDS011;63879;46.064;14.532;2023-01-28T18:57:34;30.60;;;13.07;;
75285;SDS011;63879;46.064;14.532;2023-01-28T18:59:59;32.43;;;14.60;;
75285;SDS011;63879;46.064;14.532;2023-01-28T19:02:24;35.83;;;14.83;;
75285;SDS011;63879;46.064;14.532;2023-01-28T19:04:50;31.45;;;14.68;;
75285;SDS011;63879;46.064;14.532;2023-01-28T19:07:15;29.65;;;14.02;;
75285;SDS011;63879;46.064;14.532;2023-01-28T19:09:40;31.45;;;14.82;;
75285;SDS011;63879;46.064;14.532;2023-01-28T19:12:06;28.85;;;14.15;;
75285;SDS011;63879;46.064;14.532;2023-01-28T19:14:31;28.23;;;13.73;;
75285;SDS011;63879;46.064;14.532;2023-01-28T19:16:57;28.92;;;12.38;;
75285;SDS011;63879;46.064;14.532;2023-01-28T19:19:22;31.13;;;15.25;;
75285;SDS011;63879;46.064;14.532;2023-01-28T19:21:48;34.28;;;15.38;;
75285;SDS011;63879;46.064;14.532;2023-01-28T19:24:13;28.25;;;15.70;;
75285;SDS011;63879;46.064;14.532;2023-01-28T19:26:39;34.65;;;15.85;;
75285;SDS011;63879;46.064;14.532;2023-01-28T19:29:06;33.67;;;15.13;;
75285;SDS011;63879;46.064;14.532;2023-01-28T19:31:33;36.13;;;14.80;;
75285;SDS011;63879;46.064;14.532;2023-01-28T19:33:59;31.52;;;13.65;;
75285;SDS011;63879;46.064;14.532;2023-01-28T19:36:25;33.50;;;16.10;;
75285;SDS011;63879;46.064;14.532;2023-01-28T19:38:55;28.90;;;13.70;;
75285;SDS011;63879;46.064;14.532;2023-01-28T19:41:24;33.03;;;15.23;;
75285;SDS011;63879;46.064;14.532;2023-01-28T19:43:50;33.15;;;16.65;;
75285;SDS011;63879;46.064;14.532;2023-01-28T19:46:15;33.00;;;17.20;;
75285;SDS011;63879;46.064;14.532;2023-01-28T19:48:41;36.28;;;15.65;;
75285;SDS011;63879;46.064;14.532;2023-01-28T19:51:08;36.95;;;16.40;;
75285;SDS011;63879;46.064;14.532;2023-01-28T19:53:34;38.75;;;18.25;;
75285;SDS011;63879;46.064;14.532;2023-01-28T19:56:01;40.05;;;19.75;;
75285;SDS011;63879;46.064;14.532;2023-01-28T19:58:27;45.35;;;19.75;;
75285;SDS011;63879;46.064;14.532;2023-01-28T20:00:53;43.70;;;24.45;;
75285;SDS011;63879;46.064;14.532;2023-01-28T20:03:18;40.53;;;19.17;;
75285;SDS011;63879;46.064;14.532;2023-01-28T20:05:43;44.50;;;18.83;;
75285;SDS011;63879;46.064;14.532;2023-01-28T20:08:09;42.00;;;18.88;;
75285;SDS011;63879;46.064;14.532;2023-01-28T20:10:35;41.70;;;20.83;;
75285;SDS011;63879;46.064;14.532;2023-01-28T20:13:00;39.67;;;20.30;;
75285;SDS011;63879;46.064;14.532;2023-01-28T20:15:25;42.17;;;16.83;;
75285;SDS011;63879;46.064;14.532;2023-01-28T20:17:51;40.17;;;18.30;;
75285;SDS011;63879;46.064;14.532;2023-01-28T20:20:16;42.10;;;20.67;;
75285;SDS011;63879;46.064;14.532;2023-01-28T20:22:41;39.28;;;19.92;;
75285;SDS011;63879;46.064;14.532;2023-01-28T20:25:07;39.08;;;18.63;;
75285;SDS011;63879;46.064;14.532;2023-01-28T20:27:33;37.97;;;18.70;;
75285;SDS011;63879;46.064;14.532;2023-01-28T20:29:58;39.40;;;18.88;;
75285;SDS011;63879;46.064;14.532;2023-01-28T20:32:23;37.70;;;17.60;;
75285;SDS011;63879;46.064;14.532;2023-01-28T20:34:52;40.13;;;19.60;;
75285;SDS011;63879;46.064;14.532;2023-01-28T20:37:18;40.03;;;18.83;;
75285;SDS011;63879;46.064;14.532;2023-01-28T20:39:43;39.10;;;19.05;;
75285;SDS011;63879;46.064;14.532;2023-01-28T20:42:12;39.38;;;19.00;;
75285;SDS011;63879;46.064;14.532;2023-01-28T20:44:38;36.63;;;17.40;;
75285;SDS011;63879;46.064;14.532;2023-01-28T20:47:04;39.17;;;18.85;;
75285;SDS011;63879;46.064;14.532;2023-01-28T20:49:29;42.80;;;22.15;;
75285;SDS011;63879;46.064;14.532;2023-01-28T20:51:55;39.38;;;17.58;;
75285;SDS011;63879;46.064;14.532;2023-01-28T20:54:20;36.10;;;18.45;;
75285;SDS011;63879;46.064;14.532;2023-01-28T20:56:49;44.25;;;20.00;;
75285;SDS011;63879;46.064;14.532;2023-01-28T20:59:15;45.20;;;20.33;;
75285;SDS011;63879;46.064;14.532;2023-01-28T21:01:40;42.27;;;18.67;;
75285;SDS011;63879;46.064;14.532;2023-01-28T21:04:06;43.08;;;18.73;;
75285;SDS011;63879;46.064;14.532;2023-01-28T21:06:32;45.05;;;22.95;;
75285;SDS011;63879;46.064;14.532;2023-01-28T21:08:58;43.60;;;20.02;;
75285;SDS011;63879;46.064;14.532;2023-01-28T21:11:25;40.65;;;20.60;;
75285;SDS011;63879;46.064;14.532;2023-01-28T21:13:50;41.60;;;18.73;;
75285;SDS011;63879;46.064;14.532;2023-01-28T21:16:16;39.15;;;19.65;;
75285;SDS011;63879;46.064;14.532;2023-01-28T21:18:42;40.33;;;17.95;;
75285;SDS011;63879;46.064;14.532;2023-01-28T21:21:17;42.30;;;19.80;;
75285;SDS011;63879;46.064;14.532;2023-01-28T21:23:43;40.63;;;21.63;;
75285;SDS011;63879;46.064;14.532;2023-01-28T21:26:08;38.80;;;18.45;;
75285;SDS011;63879;46.064;14.532;2023-01-28T21:28:34;42.15;;;19.38;;
75285;SDS011;63879;46.064;14.532;2023-01-28T21:31:04;38.97;;;20.13;;
75285;SDS011;63879;46.064;14.532;2023-01-28T21:33:30;41.65;;;17.90;;
75285;SDS011;63879;46.064;14.532;2023-01-28T21:35:56;42.67;;;19.97;;
75285;SDS011;63879;46.064;14.532;2023-01-28T21:38:21;40.90;;;19.58;;
75285;SDS011;63879;46.064;14.532;2023-01-28T21:40:46;38.97;;;19.10;;
75285;SDS011;63879;46.064;14.532;2023-01-28T21:43:12;52.60;;;21.20;;
75285;SDS011;63879;46.064;14.532;2023-01-28T21:45:37;42.10;;;20.60;;
75285;SDS011;63879;46.064;14.532;2023-01-28T21:48:03;40.95;;;18.73;;
75285;SDS011;63879;46.064;14.532;2023-01-28T21:50:28;41.08;;;19.58;;
75285;SDS011;63879;46.064;14.532;2023-01-28T21:52:53;45.65;;;21.42;;
75285;SDS011;63879;46.064;14.532;2023-01-28T21:55:19;40.15;;;19.30;;
75285;SDS011;63879;46.064;14.532;2023-01-28T21:57:44;42.95;;;20.55;;
